createdAt,value
2018-07-10T00:02:18.837Z,94.40
2018-07-10T00:07:06.035Z,94.60
2018-07-10T00:10:16.540Z,95.10
2018-07-10T00:12:45.191Z,94.90
2018-07-10T00:15:13.882Z,95.30
2018-07-10T00:17:42.327Z,95.60
2018-07-10T00:20:10.775Z,95.10
2018-07-10T00:22:39.332Z,94.90
2018-07-10T00:25:07.914Z,95.10
2018-07-10T00:27:36.411Z,95.00
2018-07-10T00:30:04.960Z,95.10
2018-07-10T00:32:33.505Z,95.30
2018-07-10T00:35:01.976Z,95.40
2018-07-10T00:37:30.529Z,95.30
2018-07-10T00:39:59.009Z,95.30
2018-07-10T00:42:27.671Z,95.90
2018-07-10T00:44:56.183Z,95.50
2018-07-10T00:47:24.770Z,94.90
2018-07-10T00:49:53.447Z,95.00
2018-07-10T00:52:31.550Z,95.10
2018-07-10T00:55:00.390Z,95.50
2018-07-10T00:57:29.665Z,95.60
2018-07-10T00:59:58.167Z,95.70
2018-07-10T01:02:26.817Z,95.70
2018-07-10T01:04:55.335Z,95.90
2018-07-10T01:07:24.487Z,96.30
2018-07-10T01:09:53.005Z,96.10
2018-07-10T01:12:21.499Z,96.50
2018-07-10T01:14:50.318Z,96.60
2018-07-10T01:17:19.468Z,96.60
2018-07-10T01:19:48.008Z,96.60
2018-07-10T01:22:16.745Z,96.30
2018-07-10T01:24:45.214Z,96.80
2018-07-10T01:27:14.244Z,96.70
2018-07-10T01:29:48.556Z,96.70
2018-07-10T01:32:17.751Z,96.90
2018-07-10T01:34:46.248Z,96.90
2018-07-10T01:37:15.146Z,97.00
2018-07-10T01:39:43.766Z,96.60
2018-07-10T01:42:12.247Z,96.80
2018-07-10T01:44:40.785Z,97.40
2018-07-10T01:47:09.426Z,97.10
2018-07-10T01:49:37.999Z,97.20
2018-07-10T01:52:06.821Z,97.40
2018-07-10T01:54:35.323Z,97.50
2018-07-10T01:57:03.978Z,97.60
2018-07-10T01:59:32.556Z,97.40
2018-07-10T02:02:01.114Z,97.60
2018-07-10T02:04:29.735Z,98.00
2018-07-10T02:06:58.714Z,98.00
2018-07-10T02:09:27.412Z,97.80
2018-07-10T02:11:55.910Z,97.70
2018-07-10T02:14:24.477Z,98.30
2018-07-10T02:16:52.939Z,98.20
2018-07-10T02:19:22.176Z,98.20
2018-07-10T02:21:50.675Z,98.20
2018-07-10T02:24:24.307Z,98.40
2018-07-10T02:26:53.515Z,98.40
2018-07-10T02:29:22.112Z,98.60
2018-07-10T02:31:50.965Z,98.60
2018-07-10T02:34:19.446Z,98.70
2018-07-10T02:36:48.040Z,98.60
2018-07-10T02:39:16.981Z,98.80
2018-07-10T02:41:45.533Z,98.90
2018-07-10T02:44:13.996Z,98.70
2018-07-10T02:46:42.811Z,98.90
2018-07-10T02:49:15.901Z,99.00
2018-07-10T02:52:03.140Z,99.30
2018-07-10T02:54:42.663Z,99.50
2018-07-10T02:57:12.967Z,99.70
2018-07-10T02:59:42.804Z,99.70
2018-07-10T03:02:21.257Z,99.90
2018-07-10T03:04:51.311Z,99.90
2018-07-10T03:07:19.804Z,99.90
2018-07-10T03:09:48.649Z,99.90
2018-07-10T03:12:17.954Z,99.90
2018-07-10T03:14:46.648Z,99.90
2018-07-10T03:17:19.341Z,99.90
2018-07-10T03:19:48.115Z,99.90
2018-07-10T03:22:17.122Z,99.90
2018-07-10T03:24:45.951Z,99.90
2018-07-10T03:27:14.443Z,99.90
2018-07-10T03:29:43.201Z,99.80
2018-07-10T03:32:11.938Z,99.90
2018-07-10T03:34:40.813Z,99.80
2018-07-10T03:37:09.418Z,99.90
2018-07-10T03:39:40.119Z,99.90
2018-07-10T03:42:09.225Z,99.90
2018-07-10T03:44:39.509Z,99.90
2018-07-10T03:47:08.055Z,99.90
2018-07-10T03:49:37.379Z,99.90
2018-07-10T03:52:05.879Z,99.90
2018-07-10T03:54:35.554Z,99.80
2018-07-10T03:57:05.005Z,99.90
2018-07-10T03:59:36.932Z,99.90
2018-07-10T04:02:05.424Z,99.90
2018-07-10T04:04:33.963Z,99.90
2018-07-10T04:07:02.714Z,99.90
2018-07-10T04:09:31.262Z,99.90
2018-07-10T04:11:59.940Z,99.90
2018-07-10T04:14:28.555Z,99.90
2018-07-10T04:16:57.254Z,99.90
2018-07-10T04:19:27.920Z,99.90
2018-07-10T04:21:57.493Z,99.70
2018-07-10T04:24:26.486Z,99.60
2018-07-10T04:27:32.861Z,99.50
2018-07-10T04:30:17.859Z,99.50
2018-07-10T04:32:46.429Z,99.40
2018-07-10T04:35:17.274Z,99.90
2018-07-10T04:37:49.248Z,99.90
2018-07-10T04:40:18.828Z,99.60
2018-07-10T04:42:55.298Z,99.70
2018-07-10T04:45:24.902Z,99.60
2018-07-10T04:47:57.273Z,99.40
2018-07-10T04:50:37.541Z,99.50
2018-07-10T04:53:09.393Z,99.50
2018-07-10T04:55:39.975Z,99.40
2018-07-10T04:58:13.825Z,99.50
2018-07-10T05:00:49.990Z,99.50
2018-07-10T05:03:19.459Z,98.90
2018-07-10T05:05:48.143Z,98.10
2018-07-10T05:08:19.327Z,97.50
2018-07-10T05:10:48.171Z,97.00
2018-07-10T05:13:18.239Z,97.10
2018-07-10T05:15:50.997Z,96.50
2018-07-10T05:18:20.916Z,94.90
2018-07-10T05:23:18.363Z,94.30
2018-07-10T05:25:51.383Z,95.60
2018-07-10T05:28:20.443Z,95.60
2018-07-10T05:30:49.356Z,95.60
2018-07-10T05:33:21.174Z,94.80
2018-07-10T05:35:50.628Z,93.80
2018-07-10T05:39:31.227Z,93.30
2018-07-10T05:41:59.855Z,92.90
2018-07-10T05:44:28.583Z,92.60
2018-07-10T05:47:01.160Z,93.30
2018-07-10T05:49:31.443Z,93.50
2018-07-10T05:52:00.013Z,93.50
2018-07-10T05:54:29.100Z,93.10
2018-07-10T05:56:57.600Z,93.00
2018-07-10T05:59:26.132Z,93.30
2018-07-10T06:01:55.513Z,93.00
2018-07-10T06:04:24.015Z,92.80
2018-07-10T06:06:52.957Z,93.00
2018-07-10T06:09:21.396Z,92.30
2018-07-10T06:11:49.948Z,92.50
2018-07-10T06:14:18.640Z,91.70
2018-07-10T06:16:47.303Z,91.30
2018-07-10T06:19:16.702Z,90.40
2018-07-10T06:21:47.767Z,90.70
2018-07-10T06:24:17.709Z,90.40
2018-07-10T06:26:49.485Z,90.70
2018-07-10T06:29:21.293Z,90.60
2018-07-10T06:31:54.867Z,90.40
2018-07-10T06:34:29.456Z,90.90
2018-07-10T06:37:04.632Z,91.20
2018-07-10T06:39:33.088Z,90.10
2018-07-10T06:42:13.871Z,88.80
2018-07-10T06:44:46.642Z,87.90
2018-07-10T06:47:20.531Z,88.80
2018-07-10T06:49:49.980Z,89.70
2018-07-10T06:52:19.849Z,88.30
2018-07-10T06:55:08.609Z,87.90
2018-07-10T06:57:42.913Z,89.10
2018-07-10T07:00:11.677Z,88.30
2018-07-10T07:02:40.595Z,88.20
2018-07-10T07:05:09.387Z,88.20
2018-07-10T07:07:39.006Z,88.60
2018-07-10T07:10:09.283Z,88.10
2018-07-10T07:12:38.794Z,87.60
2018-07-10T07:15:09.248Z,87.20
2018-07-10T07:17:41.424Z,86.00
2018-07-10T07:20:09.984Z,86.80
2018-07-10T07:22:38.446Z,86.80
2018-07-10T07:25:06.952Z,87.30
2018-07-10T07:27:35.547Z,87.30
2018-07-10T07:30:04.090Z,87.30
2018-07-10T07:32:32.691Z,86.30
2018-07-10T07:35:01.340Z,85.70
2018-07-10T07:37:31.631Z,84.90
2018-07-10T07:40:00.141Z,85.00
2018-07-10T07:42:30.231Z,86.50
2018-07-10T07:44:59.088Z,86.80
2018-07-10T07:47:29.502Z,83.70
2018-07-10T07:49:58.114Z,82.80
2018-07-10T07:52:28.724Z,82.80
2018-07-10T07:54:58.026Z,83.10
2018-07-10T07:57:26.991Z,83.40
2018-07-10T07:59:55.862Z,81.90
2018-07-10T08:02:24.847Z,83.20
2018-07-10T08:04:54.099Z,83.60
2018-07-10T08:07:24.591Z,82.20
2018-07-10T08:09:55.555Z,82.60
2018-07-10T08:12:25.135Z,82.50
2018-07-10T08:14:54.235Z,79.80
2018-07-10T08:17:23.411Z,81.30
2018-07-10T08:19:52.680Z,79.20
2018-07-10T08:22:21.330Z,80.30
2018-07-10T08:24:49.858Z,77.70
2018-07-10T08:27:18.418Z,77.70
2018-07-10T08:29:47.472Z,77.20
2018-07-10T08:32:16.018Z,76.70
2018-07-10T08:34:44.579Z,78.50
2018-07-10T08:37:13.411Z,76.00
2018-07-10T08:39:41.923Z,75.50
2018-07-10T08:42:10.429Z,76.50
2018-07-10T08:44:39.106Z,76.90
2018-07-10T08:47:09.426Z,75.80
2018-07-10T08:49:39.480Z,74.50
2018-07-10T08:52:10.839Z,70.40
2018-07-10T08:54:39.539Z,70.80
2018-07-10T08:57:08.117Z,71.00
2018-07-10T08:59:38.279Z,72.50
2018-07-10T09:02:07.599Z,74.90
2018-07-10T09:04:36.976Z,74.80
2018-07-10T09:07:06.893Z,75.70
2018-07-10T09:09:35.381Z,75.60
2018-07-10T09:12:03.852Z,76.60
2018-07-10T09:14:32.374Z,76.80
2018-07-10T09:17:00.986Z,77.60
2018-07-10T09:19:31.148Z,76.40
2018-07-10T09:22:06.146Z,76.50
2018-07-10T09:24:36.420Z,75.00
2018-07-10T09:27:08.195Z,70.80
2018-07-10T09:29:37.275Z,72.90
2018-07-10T09:32:06.516Z,70.10
2018-07-10T09:34:35.076Z,68.80
2018-07-10T09:37:03.629Z,67.90
2018-07-10T09:39:32.159Z,64.40
2018-07-10T09:42:00.700Z,65.30
2018-07-10T09:44:29.233Z,66.30
2018-07-10T09:46:58.074Z,64.50
2018-07-10T09:49:26.657Z,66.00
2018-07-10T09:51:55.222Z,66.30
2018-07-10T09:54:23.754Z,65.60
2018-07-10T09:56:52.268Z,63.00
2018-07-10T09:59:20.801Z,65.40
2018-07-10T10:01:50.443Z,70.10
2018-07-10T10:04:18.998Z,72.10
2018-07-10T10:06:47.527Z,72.60
2018-07-10T10:09:16.075Z,74.70
2018-07-10T10:11:44.646Z,76.00
2018-07-10T10:14:13.335Z,76.70
2018-07-10T10:16:41.838Z,78.20
2018-07-10T10:19:11.016Z,79.60
2018-07-10T10:21:39.591Z,80.60
2018-07-10T10:26:36.463Z,81.60
2018-07-10T10:29:05.018Z,82.80
2018-07-10T10:31:33.483Z,83.10
2018-07-10T10:34:02.095Z,83.70
2018-07-10T10:36:31.353Z,85.30
2018-07-10T10:38:59.963Z,88.50
2018-07-10T10:41:29.503Z,90.30
2018-07-10T10:43:58.906Z,91.40
2018-07-10T10:46:27.722Z,93.40
2018-07-10T10:48:58.651Z,94.40
2018-07-10T10:51:27.358Z,94.40
2018-07-10T10:53:55.954Z,95.90
2018-07-10T10:56:24.859Z,95.60
2018-07-10T10:58:53.451Z,95.40
2018-07-10T11:03:50.700Z,96.20
2018-07-10T11:06:19.432Z,95.40
2018-07-10T11:08:48.205Z,95.80
2018-07-10T11:11:16.899Z,95.30
2018-07-10T11:13:45.880Z,94.40
2018-07-10T11:16:14.463Z,94.50
2018-07-10T11:18:48.240Z,94.10
2018-07-10T11:21:28.449Z,92.20
2018-07-10T11:23:58.886Z,91.40
2018-07-10T11:26:37.001Z,90.40
2018-07-10T11:29:06.614Z,89.80
2018-07-10T11:31:35.803Z,88.90
2018-07-10T11:34:04.776Z,87.00
2018-07-10T11:36:33.306Z,85.50
2018-07-10T11:39:05.982Z,84.60
2018-07-10T11:41:38.788Z,83.80
2018-07-10T11:44:08.672Z,80.60
2018-07-10T11:46:37.959Z,83.20
2018-07-10T11:49:06.938Z,82.20
2018-07-10T11:51:35.550Z,83.80
2018-07-10T11:54:04.750Z,83.60
2018-07-10T11:56:33.420Z,83.00
2018-07-10T11:59:02.813Z,79.80
2018-07-10T12:01:33.103Z,78.20
2018-07-10T12:04:01.867Z,76.10
2018-07-10T12:06:30.393Z,76.70
2018-07-10T12:09:02.193Z,75.20
2018-07-10T12:11:31.919Z,77.30
2018-07-10T12:14:00.435Z,74.80
2018-07-10T12:16:29.168Z,73.50
2018-07-10T12:18:57.880Z,75.00
2018-07-10T12:21:26.398Z,76.90
2018-07-10T12:23:55.032Z,76.30
2018-07-10T12:26:23.851Z,72.60
2018-07-10T12:28:52.373Z,67.40
2018-07-10T12:31:21.127Z,69.10
2018-07-10T12:33:49.739Z,70.80
2018-07-10T12:36:18.359Z,66.70
2018-07-10T12:38:46.943Z,64.30
2018-07-10T12:41:15.726Z,65.00
2018-07-10T12:43:44.195Z,65.60
2018-07-10T12:46:13.349Z,67.10
2018-07-10T12:48:41.977Z,64.90
2018-07-10T12:51:10.695Z,65.60
2018-07-10T12:53:39.540Z,64.20
2018-07-10T12:56:08.132Z,65.40
2018-07-10T12:58:40.167Z,66.20
2018-07-10T13:01:09.302Z,64.00
2018-07-10T13:03:38.327Z,63.70
2018-07-10T13:06:06.776Z,62.90
2018-07-10T13:08:35.273Z,60.60
2018-07-10T13:11:03.927Z,59.30
2018-07-10T13:13:32.639Z,60.40
2018-07-10T13:16:01.146Z,60.60
2018-07-10T13:18:31.635Z,59.40
2018-07-10T13:21:00.563Z,58.60
2018-07-10T13:23:29.440Z,58.30
2018-07-10T13:25:58.356Z,57.10
2018-07-10T13:28:26.957Z,58.10
2018-07-10T13:30:55.494Z,58.70
2018-07-10T13:33:24.104Z,58.70
2018-07-10T13:35:52.703Z,58.50
2018-07-10T13:38:22.376Z,58.90
2018-07-10T13:40:52.930Z,59.50
2018-07-10T13:43:21.586Z,61.00
2018-07-10T13:45:50.154Z,59.50
2018-07-10T13:48:19.194Z,57.90
2018-07-10T13:50:47.780Z,58.50
2018-07-10T13:53:16.298Z,58.40
2018-07-10T13:55:44.816Z,57.90
2018-07-10T13:58:17.629Z,57.00
2018-07-10T14:00:50.802Z,58.30
2018-07-10T14:03:19.640Z,57.20
2018-07-10T14:05:48.111Z,56.40
2018-07-10T14:08:16.702Z,51.80
2018-07-10T14:10:45.354Z,53.70
2018-07-10T14:13:13.920Z,48.80
2018-07-10T14:15:42.507Z,47.90
2018-07-10T14:18:11.387Z,45.20
2018-07-10T14:21:12.248Z,44.30
2018-07-10T14:23:40.799Z,43.30
2018-07-10T14:26:09.465Z,40.90
2018-07-10T14:28:38.742Z,42.20
2018-07-10T14:31:07.261Z,40.60
2018-07-10T14:33:35.863Z,35.90
2018-07-10T14:36:04.392Z,36.20
2018-07-10T14:38:32.928Z,36.20
2018-07-10T14:41:06.511Z,36.90
2018-07-10T14:43:40.195Z,37.90
2018-07-10T14:46:11.591Z,37.80
2018-07-10T14:48:44.460Z,40.60
2018-07-10T14:51:14.355Z,46.90
2018-07-10T14:53:43.402Z,46.40
2018-07-10T14:56:12.228Z,49.20
2018-07-10T14:58:40.807Z,44.40
2018-07-10T15:01:09.381Z,42.30
2018-07-10T15:03:37.963Z,38.70
2018-07-10T15:06:06.405Z,37.70
2018-07-10T15:08:35.016Z,36.80
2018-07-10T15:11:03.575Z,41.50
2018-07-10T15:13:42.147Z,41.00
2018-07-10T15:16:10.618Z,40.40
2018-07-10T15:18:41.135Z,39.60
2018-07-10T15:21:10.230Z,39.00
2018-07-10T15:23:38.858Z,38.60
2018-07-10T15:26:07.411Z,35.40
2018-07-10T15:31:06.571Z,33.60
2018-07-10T15:33:35.203Z,33.00
2018-07-10T15:36:03.871Z,32.20
2018-07-10T15:38:32.699Z,31.40
2018-07-10T15:41:01.358Z,31.00
2018-07-10T15:45:58.117Z,30.40
2018-07-10T15:48:26.776Z,29.50
2018-07-10T15:50:55.592Z,28.70
2018-07-10T15:53:24.287Z,29.30
2018-07-10T15:55:52.851Z,30.80
2018-07-10T15:58:21.430Z,31.00
2018-07-10T16:00:50.131Z,29.30
2018-07-10T16:03:18.975Z,30.70
2018-07-10T16:05:47.868Z,31.20
2018-07-10T16:08:19.024Z,30.00
2018-07-10T16:10:52.648Z,30.00
2018-07-10T16:13:22.713Z,30.30
2018-07-10T16:15:56.543Z,31.50
2018-07-10T16:18:26.877Z,30.60
2018-07-10T16:21:00.374Z,31.10
2018-07-10T16:23:29.964Z,31.70
2018-07-10T16:26:19.872Z,30.70
2018-07-10T16:28:48.463Z,32.00
2018-07-10T16:31:18.663Z,30.60
2018-07-10T16:33:47.209Z,28.80
2018-07-10T16:36:16.624Z,29.90
2018-07-10T16:38:45.936Z,30.20
2018-07-10T16:41:23.269Z,31.50
2018-07-10T16:43:53.789Z,34.30
2018-07-10T16:46:25.662Z,34.60
2018-07-10T16:49:03.243Z,35.20
2018-07-10T16:51:40.768Z,33.90
2018-07-10T16:54:09.415Z,32.40
2018-07-10T16:56:38.154Z,31.50
2018-07-10T16:59:06.832Z,30.80
2018-07-10T17:01:35.768Z,29.50
2018-07-10T17:04:04.747Z,31.70
2018-07-10T17:06:33.399Z,31.50
2018-07-10T17:09:02.159Z,31.10
2018-07-10T17:11:30.928Z,32.00
2018-07-10T17:13:59.422Z,31.80
2018-07-10T17:16:29.006Z,32.10
2018-07-10T17:18:57.804Z,32.00
2018-07-10T17:21:27.863Z,31.70
2018-07-10T17:23:57.495Z,30.90
2018-07-10T17:26:26.116Z,30.80
2018-07-10T17:28:55.321Z,31.90
2018-07-10T17:31:24.159Z,30.90
2018-07-10T17:33:52.817Z,31.90
2018-07-10T17:36:23.319Z,33.80
2018-07-10T17:38:51.986Z,32.10
2018-07-10T17:41:21.020Z,32.20
2018-07-10T17:43:49.800Z,31.00
2018-07-10T17:46:18.564Z,31.90
2018-07-10T17:48:47.577Z,32.50
2018-07-10T17:51:16.324Z,31.80
2018-07-10T17:53:44.910Z,31.10
2018-07-10T17:56:13.715Z,30.60
2018-07-10T17:58:42.335Z,30.70
2018-07-10T18:01:10.957Z,31.30
2018-07-10T18:03:39.468Z,31.00
2018-07-10T18:06:08.204Z,33.70
2018-07-10T18:08:37.107Z,36.50
2018-07-10T18:11:06.059Z,40.00
2018-07-10T18:13:34.639Z,42.20
2018-07-10T18:16:03.251Z,44.70
2018-07-10T18:18:31.801Z,45.70
2018-07-10T18:21:00.474Z,47.20
2018-07-10T18:23:29.046Z,47.50
2018-07-10T18:25:57.598Z,47.60
2018-07-10T18:28:26.316Z,48.90
2018-07-10T18:30:54.982Z,49.30
2018-07-10T18:33:23.706Z,50.20
2018-07-10T18:35:52.438Z,50.90
2018-07-10T18:38:21.106Z,49.80
2018-07-10T18:40:49.827Z,52.00
2018-07-10T18:43:18.506Z,53.60
2018-07-10T18:45:47.248Z,54.40
2018-07-10T18:48:21.671Z,52.50
2018-07-10T18:50:50.300Z,54.30
2018-07-10T18:53:19.527Z,55.10
2018-07-10T18:55:49.323Z,56.50
2018-07-10T18:59:21.566Z,56.70
2018-07-10T19:01:56.548Z,55.60
2018-07-10T19:04:31.921Z,55.90
2018-07-10T19:07:00.552Z,58.10
2018-07-10T19:09:35.012Z,59.40
2018-07-10T19:12:09.736Z,59.30
2018-07-10T19:14:38.556Z,63.00
2018-07-10T19:17:13.044Z,65.10
2018-07-10T19:19:45.418Z,66.70
2018-07-10T19:22:15.993Z,68.10
2018-07-10T19:24:44.835Z,69.30
2018-07-10T19:27:22.407Z,70.60
2018-07-10T19:29:53.904Z,71.70
2018-07-10T19:32:22.969Z,72.80
2018-07-10T19:34:57.031Z,73.10
2018-07-10T19:37:28.284Z,74.70
2018-07-10T19:39:57.217Z,76.00
2018-07-10T19:42:26.861Z,76.40
2018-07-10T19:44:56.168Z,76.30
2018-07-10T19:47:25.972Z,77.70
2018-07-10T19:49:56.888Z,78.60
2018-07-10T19:52:25.731Z,79.20
2018-07-10T19:54:55.372Z,80.20
2018-07-10T19:58:45.371Z,81.30
2018-07-10T20:01:24.414Z,82.10
2018-07-10T20:06:27.300Z,84.30
2018-07-10T20:09:01.027Z,84.50
2018-07-10T20:11:44.789Z,84.30
2018-07-10T20:14:17.645Z,84.60
2018-07-10T20:16:53.639Z,84.90
2018-07-10T20:19:29.866Z,85.20
2018-07-10T20:24:15.814Z,85.80
2018-07-10T20:26:56.138Z,87.10
2018-07-10T20:29:46.875Z,89.20
2018-07-10T20:32:20.591Z,88.60
2018-07-10T20:34:56.671Z,89.40
2018-07-10T20:37:28.783Z,89.80
2018-07-10T20:39:57.496Z,90.10
2018-07-10T20:42:31.853Z,90.10
2018-07-10T20:45:05.821Z,90.50
2018-07-10T20:47:50.254Z,90.80
2018-07-10T20:50:39.345Z,90.90
2018-07-10T20:53:14.234Z,91.10
2018-07-10T20:55:52.490Z,91.20
2018-07-10T20:58:23.889Z,91.40
2018-07-10T21:01:07.214Z,91.70
2018-07-10T21:03:54.472Z,92.00
2018-07-10T21:06:32.343Z,92.10
2018-07-10T21:09:08.548Z,92.20
2018-07-10T21:12:11.922Z,92.30
2018-07-10T21:15:03.208Z,92.30
2018-07-10T21:17:35.849Z,92.40
2018-07-10T21:20:10.763Z,92.40
2018-07-10T21:22:51.835Z,92.50
2018-07-10T21:25:23.603Z,92.60
2018-07-10T21:28:32.479Z,92.60
2018-07-10T21:31:34.298Z,92.80
2018-07-10T21:34:09.855Z,93.00
2018-07-10T21:37:52.135Z,93.60
2018-07-10T21:41:29.841Z,93.70
2018-07-10T21:44:06.073Z,94.00
2018-07-10T21:46:39.912Z,94.00
2018-07-10T21:49:46.248Z,94.20
2018-07-10T21:52:14.786Z,94.20
2018-07-10T21:54:43.413Z,94.40
2018-07-10T21:57:14.893Z,94.40
2018-07-10T21:59:47.937Z,94.50
2018-07-10T22:02:16.759Z,94.40
2018-07-10T22:04:45.959Z,94.60
2018-07-10T22:07:15.930Z,94.50
2018-07-10T22:09:45.117Z,94.70
2018-07-10T22:12:15.741Z,94.80
2018-07-10T22:14:44.831Z,94.80
2018-07-10T22:17:30.706Z,94.60
2018-07-10T22:19:59.323Z,94.40
2018-07-10T22:22:30.666Z,94.40
2018-07-10T22:27:28.599Z,94.50
2018-07-10T22:30:03.839Z,94.70
2018-07-10T22:32:40.628Z,94.70
2018-07-10T22:35:09.323Z,95.00
2018-07-10T22:37:37.914Z,95.40
2018-07-10T22:40:07.734Z,95.20
2018-07-10T22:42:36.599Z,95.70
2018-07-10T22:45:05.225Z,96.20
2018-07-10T22:47:39.950Z,96.10
2018-07-10T22:50:12.834Z,96.00
2018-07-10T22:52:58.306Z,96.40
2018-07-10T22:55:28.348Z,96.40
2018-07-10T22:58:01.520Z,96.30
2018-07-10T23:00:31.903Z,96.40
2018-07-10T23:03:01.122Z,96.50
2018-07-10T23:05:29.669Z,96.50
2018-07-10T23:07:58.332Z,96.70
2018-07-10T23:10:27.507Z,97.00
2018-07-10T23:12:56.060Z,97.10
2018-07-10T23:15:24.759Z,97.00
2018-07-10T23:17:53.335Z,97.20
2018-07-10T23:20:22.816Z,97.20
2018-07-10T23:22:56.731Z,97.30
2018-07-10T23:25:26.526Z,97.50
2018-07-10T23:28:03.595Z,97.40
2018-07-10T23:30:39.091Z,97.40
2018-07-10T23:33:11.580Z,97.90
2018-07-10T23:35:41.755Z,97.90
2018-07-10T23:38:16.111Z,97.60
2018-07-10T23:43:12.912Z,97.40
2018-07-10T23:45:41.415Z,97.80
2018-07-10T23:48:10.114Z,98.10
2018-07-10T23:50:39.067Z,98.00
2018-07-10T23:53:45.295Z,97.90
2018-07-10T23:56:13.949Z,98.30
2018-07-10T23:58:42.480Z,98.30
